createdAt,value
2024-01-24T00:00:47.240Z,8.11
2024-01-24T00:03:33.455Z,8.07
2024-01-24T00:06:19.602Z,8.02
2024-01-24T00:09:05.989Z,8.11
2024-01-24T00:11:59.105Z,7.97
2024-01-24T00:14:45.302Z,8.03
2024-01-24T00:17:31.504Z,8.06
2024-01-24T00:20:17.624Z,8.04
2024-01-24T00:23:03.533Z,8.02
2024-01-24T00:25:50.764Z,8.06
2024-01-24T00:28:36.849Z,8.07
2024-01-24T00:31:22.720Z,8.09
2024-01-24T00:34:09.457Z,8.07
2024-01-24T00:36:56.379Z,8.09
2024-01-24T00:39:42.920Z,8.12
2024-01-24T00:42:29.172Z,8.13
2024-01-24T00:45:15.244Z,8.13
2024-01-24T00:48:11.977Z,8.06
2024-01-24T00:50:58.138Z,8.14
2024-01-24T00:53:45.491Z,8.16
2024-01-24T00:56:31.305Z,8.18
2024-01-24T00:59:19.249Z,8.19
2024-01-24T01:02:05.126Z,8.13
2024-01-24T01:04:51.023Z,8.10
2024-01-24T01:07:36.932Z,8.10
2024-01-24T01:10:23.156Z,8.14
2024-01-24T01:13:09.000Z,8.14
2024-01-24T01:15:57.008Z,8.09
2024-01-24T01:18:44.542Z,8.14
2024-01-24T01:21:30.678Z,8.16
2024-01-24T01:24:19.136Z,8.08
2024-01-24T01:27:05.116Z,8.04
2024-01-24T01:29:52.944Z,8.03
2024-01-24T01:32:40.248Z,8.03
2024-01-24T01:35:27.891Z,8.06
2024-01-24T01:38:17.101Z,8.00
2024-01-24T01:41:05.573Z,8.03
2024-01-24T01:43:51.786Z,8.11
2024-01-24T01:46:40.893Z,8.12
2024-01-24T01:49:26.910Z,8.04
2024-01-24T01:52:46.641Z,8.02
2024-01-24T01:55:32.965Z,8.14
2024-01-24T01:58:25.953Z,8.16
2024-01-24T02:01:12.340Z,8.17
2024-01-24T02:04:04.700Z,8.14
2024-01-24T02:06:52.552Z,8.12
2024-01-24T02:09:38.731Z,8.15
2024-01-24T02:12:26.888Z,8.17
2024-01-24T02:15:13.040Z,8.12
2024-01-24T02:17:59.001Z,8.09
2024-01-24T02:20:45.656Z,8.13
2024-01-24T02:23:31.747Z,8.11
2024-01-24T02:26:18.052Z,8.06
2024-01-24T02:29:04.217Z,8.07
2024-01-24T02:31:52.451Z,8.01
2024-01-24T02:34:38.576Z,7.93
2024-01-24T02:37:24.468Z,7.85
2024-01-24T02:40:17.228Z,7.77
2024-01-24T02:43:03.574Z,7.84
2024-01-24T02:45:50.367Z,7.78
2024-01-24T02:48:36.837Z,7.77
2024-01-24T02:51:27.063Z,7.75
2024-01-24T02:54:13.034Z,7.79
2024-01-24T02:56:59.974Z,7.80
2024-01-24T02:59:45.864Z,7.80
2024-01-24T03:02:32.539Z,7.79
2024-01-24T03:05:18.722Z,7.77
2024-01-24T03:08:06.354Z,7.70
2024-01-24T03:10:52.106Z,7.72
2024-01-24T03:13:37.989Z,7.69
2024-01-24T03:16:24.185Z,7.68
2024-01-24T03:19:10.460Z,7.67
2024-01-24T03:21:56.466Z,7.62
2024-01-24T03:24:42.785Z,7.63
2024-01-24T03:27:28.633Z,7.60
2024-01-24T03:30:14.993Z,7.62
2024-01-24T03:33:02.216Z,7.61
2024-01-24T03:35:48.834Z,7.54
2024-01-24T03:38:35.581Z,7.60
2024-01-24T03:41:23.759Z,7.54
2024-01-24T03:44:10.161Z,7.59
2024-01-24T03:46:56.463Z,7.60
2024-01-24T03:49:42.601Z,7.63
2024-01-24T03:52:28.635Z,7.64
2024-01-24T03:55:14.466Z,7.63
2024-01-24T03:58:00.530Z,7.56
2024-01-24T04:00:46.678Z,7.61
2024-01-24T04:03:33.824Z,7.55
2024-01-24T04:06:19.761Z,7.57
2024-01-24T04:09:06.659Z,7.58
2024-01-24T04:11:52.310Z,7.54
2024-01-24T04:14:38.261Z,7.54
2024-01-24T04:17:24.401Z,7.53
2024-01-24T04:20:10.794Z,7.47
2024-01-24T04:22:56.636Z,7.49
2024-01-24T04:25:42.672Z,7.44
2024-01-24T04:28:28.885Z,7.50
2024-01-24T04:31:15.290Z,7.48
2024-01-24T04:34:01.625Z,7.43
2024-01-24T04:36:47.833Z,7.42
2024-01-24T04:39:33.902Z,7.48
2024-01-24T04:42:20.490Z,7.47
2024-01-24T04:45:06.724Z,7.43
2024-01-24T04:47:52.989Z,7.31
2024-01-24T04:50:39.412Z,7.34
2024-01-24T04:53:25.837Z,7.37
2024-01-24T04:56:11.998Z,7.38
2024-01-24T04:58:58.179Z,7.35
2024-01-24T05:01:44.664Z,7.26
2024-01-24T05:04:30.498Z,7.30
2024-01-24T05:07:16.693Z,7.22
2024-01-24T05:10:04.733Z,7.23
2024-01-24T05:12:50.628Z,7.11
2024-01-24T05:15:36.625Z,7.16
2024-01-24T05:18:23.886Z,7.14
2024-01-24T05:21:09.783Z,7.13
2024-01-24T05:23:56.811Z,7.09
2024-01-24T05:26:44.880Z,7.05
2024-01-24T05:29:33.262Z,6.92
2024-01-24T05:32:19.347Z,6.93
2024-01-24T05:35:05.797Z,6.95
2024-01-24T05:37:51.937Z,6.85
2024-01-24T05:40:37.901Z,6.90
2024-01-24T05:43:24.013Z,6.88
2024-01-24T05:46:10.203Z,6.84
2024-01-24T05:48:57.086Z,6.82
2024-01-24T05:51:43.770Z,6.70
2024-01-24T05:54:32.205Z,6.74
2024-01-24T05:57:18.287Z,6.77
2024-01-24T06:00:04.616Z,6.75
2024-01-24T06:02:50.670Z,6.71
2024-01-24T06:05:36.584Z,6.67
2024-01-24T06:08:24.672Z,6.63
2024-01-24T06:11:11.308Z,6.56
2024-01-24T06:14:01.109Z,6.44
2024-01-24T06:16:47.071Z,6.45
2024-01-24T06:19:33.251Z,6.37
2024-01-24T06:22:19.281Z,6.38
2024-01-24T06:25:09.195Z,6.33
2024-01-24T06:28:01.555Z,6.30
2024-01-24T06:30:48.626Z,6.27
2024-01-24T06:33:37.822Z,6.28
2024-01-24T06:36:24.173Z,6.30
2024-01-24T06:39:11.215Z,6.29
2024-01-24T06:41:57.456Z,6.30
2024-01-24T06:44:45.129Z,6.26
2024-01-24T06:47:31.637Z,6.31
2024-01-24T06:50:19.015Z,6.31
2024-01-24T06:53:07.146Z,6.34
2024-01-24T06:55:53.167Z,6.35
2024-01-24T06:58:39.310Z,6.37
2024-01-24T07:01:25.484Z,6.35
2024-01-24T07:04:11.965Z,6.36
2024-01-24T07:06:58.334Z,6.37
2024-01-24T07:09:44.402Z,6.33
2024-01-24T07:12:31.402Z,6.35
2024-01-24T07:15:17.848Z,6.32
2024-01-24T07:18:04.488Z,6.30
2024-01-24T07:20:50.711Z,6.33
2024-01-24T07:23:36.715Z,6.32
2024-01-24T07:26:22.738Z,6.34
2024-01-24T07:29:08.645Z,6.30
2024-01-24T07:31:55.694Z,6.37
2024-01-24T07:34:41.535Z,6.32
2024-01-24T07:37:32.896Z,6.28
2024-01-24T07:40:18.902Z,6.39
2024-01-24T07:43:05.244Z,6.38
2024-01-24T07:45:52.116Z,6.44
2024-01-24T07:48:38.152Z,6.47
2024-01-24T07:51:24.334Z,6.47
2024-01-24T07:54:10.624Z,6.47
2024-01-24T07:56:56.341Z,6.49
2024-01-24T07:59:42.473Z,6.50
2024-01-24T08:02:29.704Z,6.57
2024-01-24T08:05:16.783Z,6.61
2024-01-24T08:08:03.099Z,6.63
2024-01-24T08:10:49.556Z,6.67
2024-01-24T08:13:35.434Z,6.66
2024-01-24T08:16:24.234Z,6.69
2024-01-24T08:19:12.559Z,6.75
2024-01-24T08:21:59.455Z,6.82
2024-01-24T08:24:46.938Z,6.85
2024-01-24T08:27:33.078Z,6.91
2024-01-24T08:30:21.661Z,6.95
2024-01-24T08:33:08.244Z,6.98
2024-01-24T08:35:54.532Z,7.06
2024-01-24T08:38:46.457Z,7.07
2024-01-24T08:41:33.089Z,7.14
2024-01-24T08:44:19.611Z,7.24
2024-01-24T08:47:07.307Z,7.22
2024-01-24T08:49:55.436Z,7.27
2024-01-24T08:52:41.407Z,7.30
2024-01-24T08:55:28.911Z,7.33
2024-01-24T08:58:15.416Z,7.41
2024-01-24T09:01:07.632Z,7.41
2024-01-24T09:03:54.730Z,7.53
2024-01-24T09:06:41.079Z,7.56
2024-01-24T09:09:28.174Z,7.45
2024-01-24T09:12:15.455Z,7.63
2024-01-24T09:15:01.711Z,7.61
2024-01-24T09:17:49.372Z,7.71
2024-01-24T09:20:38.854Z,7.76
2024-01-24T09:23:24.704Z,7.90
2024-01-24T09:26:18.256Z,7.95
2024-01-24T09:29:04.266Z,8.19
2024-01-24T09:31:50.320Z,8.36
2024-01-24T09:34:36.475Z,8.51
2024-01-24T09:37:22.755Z,8.73
2024-01-24T09:40:10.940Z,8.92
2024-01-24T09:43:02.053Z,9.04
2024-01-24T09:45:50.523Z,9.18
2024-01-24T09:48:36.830Z,9.39
2024-01-24T09:51:23.106Z,9.54
2024-01-24T09:54:09.725Z,9.73
2024-01-24T09:56:59.377Z,9.83
2024-01-24T09:59:45.561Z,9.95
2024-01-24T10:02:33.742Z,10.10
2024-01-24T10:05:21.822Z,10.20
2024-01-24T10:08:11.280Z,10.30
2024-01-24T10:10:57.301Z,10.41
2024-01-24T10:13:44.357Z,10.49
2024-01-24T10:16:30.305Z,10.63
2024-01-24T10:19:16.604Z,10.70
2024-01-24T10:22:07.213Z,10.83
2024-01-24T10:24:56.153Z,10.91
2024-01-24T10:27:43.068Z,10.94
2024-01-24T10:30:33.543Z,11.15
2024-01-24T10:33:20.166Z,11.28
2024-01-24T10:36:14.545Z,11.39
2024-01-24T10:39:11.016Z,11.48
2024-01-24T10:41:59.428Z,11.56
2024-01-24T10:44:46.076Z,11.65
2024-01-24T10:47:32.615Z,11.82
2024-01-24T10:50:19.290Z,11.95
2024-01-24T10:53:05.319Z,12.03
2024-01-24T10:55:52.490Z,12.14
2024-01-24T10:58:41.824Z,12.32
2024-01-24T11:01:28.230Z,12.51
2024-01-24T11:04:20.594Z,12.66
2024-01-24T11:07:11.532Z,12.77
2024-01-24T11:10:22.603Z,12.86
2024-01-24T11:13:14.895Z,13.06
2024-01-24T11:21:01.397Z,13.07
2024-01-24T11:23:48.323Z,13.39
2024-01-24T11:26:34.527Z,13.57
2024-01-24T11:29:20.931Z,13.69
2024-01-24T11:32:11.581Z,13.79
2024-01-24T11:35:28.817Z,13.85
2024-01-24T11:38:25.586Z,14.09
2024-01-24T11:41:27.504Z,14.25
2024-01-24T11:49:11.109Z,14.58
2024-01-24T12:06:51.951Z,15.01
2024-01-24T12:09:37.785Z,15.23
2024-01-24T12:12:24.795Z,15.23
2024-01-24T12:15:47.066Z,15.13
2024-01-24T12:18:33.699Z,15.26
2024-01-24T12:21:20.328Z,15.31
2024-01-24T12:24:07.083Z,15.33
2024-01-24T12:26:57.783Z,15.26
2024-01-24T12:29:45.545Z,15.27
2024-01-24T12:33:17.628Z,15.24
2024-01-24T12:36:07.724Z,15.45
2024-01-24T12:38:56.591Z,15.60
2024-01-24T12:42:14.446Z,15.65
2024-01-24T12:45:00.615Z,15.91
2024-01-24T12:47:46.609Z,16.00
2024-01-24T12:50:34.161Z,16.12
2024-01-24T12:53:21.690Z,16.18
2024-01-24T12:56:10.881Z,16.14
2024-01-24T12:58:58.206Z,16.22
2024-01-24T13:01:44.350Z,16.18
2024-01-24T13:04:30.463Z,16.08
2024-01-24T13:07:16.671Z,15.93
2024-01-24T13:10:07.041Z,15.76
2024-01-24T13:12:54.097Z,15.47
2024-01-24T13:15:41.189Z,15.45
2024-01-24T13:43:22.630Z,13.74
2024-01-24T13:46:08.792Z,13.69
2024-01-24T13:48:54.989Z,13.72
2024-01-24T13:51:43.391Z,13.67
2024-01-24T13:54:31.031Z,13.66
2024-01-24T13:57:17.191Z,13.64
2024-01-24T14:00:04.200Z,13.59
2024-01-24T14:02:51.968Z,13.47
2024-01-24T14:05:40.122Z,13.38
2024-01-24T14:08:27.091Z,13.29
2024-01-24T14:11:15.323Z,13.18
2024-01-24T14:14:01.725Z,13.09
2024-01-24T14:16:49.039Z,13.02
2024-01-24T14:19:35.041Z,12.95
2024-01-24T14:22:21.472Z,12.84
2024-01-24T14:25:09.242Z,12.70
2024-01-24T14:27:55.681Z,12.69
2024-01-24T14:30:41.468Z,12.61
2024-01-24T14:33:34.316Z,12.52
2024-01-24T14:36:32.934Z,12.38
2024-01-24T14:39:19.275Z,12.37
2024-01-24T14:42:08.336Z,12.32
2024-01-24T14:44:55.433Z,12.28
2024-01-24T14:47:41.590Z,12.20
2024-01-24T14:50:29.455Z,12.18
2024-01-24T14:53:17.590Z,12.15
2024-01-24T14:56:03.579Z,12.09
2024-01-24T14:58:49.855Z,11.97
2024-01-24T15:01:36.259Z,11.96
2024-01-24T15:04:22.840Z,11.80
2024-01-24T15:07:09.257Z,11.73
2024-01-24T15:09:55.836Z,11.64
2024-01-24T15:12:41.953Z,11.55
2024-01-24T15:15:28.280Z,11.53
2024-01-24T15:18:14.554Z,11.47
2024-01-24T15:21:07.981Z,11.40
2024-01-24T15:23:58.866Z,11.32
2024-01-24T15:26:46.271Z,11.27
2024-01-24T15:29:32.548Z,11.17
2024-01-24T15:32:18.888Z,11.16
2024-01-24T15:35:05.954Z,11.07
2024-01-24T15:37:53.528Z,11.08
2024-01-24T15:40:40.125Z,11.05
2024-01-24T15:43:27.306Z,10.94
2024-01-24T15:46:13.802Z,11.02
2024-01-24T15:49:00.230Z,10.99
2024-01-24T15:51:46.651Z,10.97
2024-01-24T15:54:32.958Z,10.94
2024-01-24T15:57:19.065Z,10.83
2024-01-24T16:00:11.191Z,10.82
2024-01-24T16:02:57.602Z,10.73
2024-01-24T16:05:47.378Z,10.78
2024-01-24T16:08:34.805Z,10.76
2024-01-24T16:11:20.943Z,10.71
2024-01-24T16:14:06.805Z,10.69
2024-01-24T16:16:57.223Z,10.63
2024-01-24T16:19:43.062Z,10.57
2024-01-24T16:22:36.178Z,10.56
2024-01-24T16:25:25.549Z,10.53
2024-01-24T16:28:16.144Z,10.47
2024-01-24T16:31:02.606Z,10.40
2024-01-24T16:33:49.952Z,10.44
2024-01-24T16:36:36.846Z,10.42
2024-01-24T16:39:23.039Z,10.35
2024-01-24T16:42:09.523Z,10.31
2024-01-24T16:44:55.975Z,10.25
2024-01-24T16:47:42.420Z,10.24
2024-01-24T16:50:28.289Z,10.13
2024-01-24T16:53:14.847Z,10.12
2024-01-24T16:56:00.993Z,10.11
2024-01-24T16:58:47.174Z,10.12
2024-01-24T17:01:33.359Z,10.07
2024-01-24T17:04:19.901Z,10.02
2024-01-24T17:07:06.036Z,10.04
2024-01-24T17:09:52.775Z,10.01
2024-01-24T17:12:39.766Z,9.97
2024-01-24T17:15:25.748Z,9.93
2024-01-24T17:18:12.960Z,9.89
2024-01-24T17:20:59.278Z,9.91
2024-01-24T17:23:46.765Z,9.89
2024-01-24T17:26:32.882Z,9.88
2024-01-24T17:29:19.621Z,9.90
2024-01-24T17:32:05.972Z,9.88
2024-01-24T17:34:51.998Z,9.92
2024-01-24T17:37:38.231Z,9.95
2024-01-24T17:40:24.678Z,9.92
2024-01-24T17:43:10.875Z,9.93
2024-01-24T17:45:57.480Z,9.88
2024-01-24T17:48:44.581Z,9.89
2024-01-24T17:51:34.270Z,9.84
2024-01-24T17:54:20.355Z,9.81
2024-01-24T17:57:06.387Z,9.76
2024-01-24T17:59:52.440Z,9.74
2024-01-24T18:02:38.711Z,9.72
2024-01-24T18:05:25.072Z,9.70
2024-01-24T18:08:11.376Z,9.65
2024-01-24T18:10:58.582Z,9.63
2024-01-24T18:13:45.966Z,9.43
2024-01-24T18:16:37.661Z,9.54
2024-01-24T18:19:23.700Z,9.54
2024-01-24T18:22:12.230Z,9.49
2024-01-24T18:25:22.548Z,9.35
2024-01-24T18:28:11.278Z,9.39
2024-01-24T18:30:57.124Z,9.41
2024-01-24T18:33:43.516Z,9.35
2024-01-24T18:36:29.567Z,9.34
2024-01-24T18:39:15.556Z,9.28
2024-01-24T18:42:02.101Z,9.26
2024-01-24T18:44:48.493Z,9.23
2024-01-24T18:47:34.739Z,9.17
2024-01-24T18:50:21.375Z,9.07
2024-01-24T18:53:09.038Z,9.06
2024-01-24T18:55:55.750Z,8.98
2024-01-24T18:58:42.300Z,8.96
2024-01-24T19:01:28.829Z,8.96
2024-01-24T19:04:16.732Z,8.91
2024-01-24T19:07:03.367Z,8.93
2024-01-24T19:09:50.003Z,8.88
2024-01-24T19:12:40.409Z,8.77
2024-01-24T19:15:28.380Z,8.71
2024-01-24T19:18:17.559Z,8.65
2024-01-24T19:21:06.165Z,8.62
2024-01-24T19:23:53.422Z,8.61
2024-01-24T19:26:43.995Z,8.60
2024-01-24T19:29:29.970Z,8.58
2024-01-24T19:32:16.100Z,8.56
2024-01-24T19:35:04.917Z,8.54
2024-01-24T19:37:51.061Z,8.52
2024-01-24T19:40:38.871Z,8.55
2024-01-24T19:43:25.029Z,8.56
2024-01-24T19:46:12.296Z,8.56
2024-01-24T19:48:58.690Z,8.55
2024-01-24T19:51:44.775Z,8.51
2024-01-24T19:54:30.821Z,8.49
2024-01-24T19:57:16.993Z,8.44
2024-01-24T20:00:03.090Z,8.39
2024-01-24T20:02:51.129Z,8.34
2024-01-24T20:05:38.225Z,8.39
2024-01-24T20:08:24.595Z,8.38
2024-01-24T20:11:10.838Z,8.39
2024-01-24T20:13:56.662Z,8.38
2024-01-24T20:16:44.281Z,8.31
2024-01-24T20:19:30.506Z,8.26
2024-01-24T20:22:17.082Z,8.33
2024-01-24T20:25:03.254Z,8.26
2024-01-24T20:27:49.889Z,8.31
2024-01-24T20:30:46.135Z,8.26
2024-01-24T20:33:41.120Z,8.28
2024-01-24T20:36:27.623Z,8.23
2024-01-24T20:39:21.587Z,8.24
2024-01-24T20:42:11.216Z,8.19
2024-01-24T20:44:59.934Z,8.19
2024-01-24T20:47:46.196Z,8.18
2024-01-24T20:50:34.373Z,8.20
2024-01-24T20:53:20.486Z,8.23
2024-01-24T20:56:06.765Z,8.21
2024-01-24T20:58:53.780Z,8.15
2024-01-24T21:01:40.244Z,8.19
2024-01-24T21:04:26.585Z,8.15
2024-01-24T21:07:13.216Z,8.14
2024-01-24T21:09:59.148Z,8.13
2024-01-24T21:12:45.404Z,8.08
2024-01-24T21:15:31.656Z,8.07
2024-01-24T21:18:17.815Z,8.04
2024-01-24T21:21:04.399Z,8.06
2024-01-24T21:23:51.591Z,8.06
2024-01-24T21:26:48.557Z,7.97
2024-01-24T21:29:34.521Z,8.02
2024-01-24T21:32:20.869Z,7.97
2024-01-24T21:35:07.963Z,7.94
2024-01-24T21:37:55.384Z,7.89
2024-01-24T21:40:41.550Z,7.80
2024-01-24T21:43:27.694Z,7.84
2024-01-24T21:46:13.946Z,7.84
2024-01-24T21:49:00.305Z,7.82
2024-01-24T21:51:47.457Z,7.79
2024-01-24T21:54:33.737Z,7.80
2024-01-24T21:57:20.072Z,7.78
2024-01-24T22:00:07.699Z,7.75
2024-01-24T22:02:53.838Z,7.70
2024-01-24T22:05:39.810Z,7.74
2024-01-24T22:08:25.953Z,7.71
2024-01-24T22:11:13.969Z,7.67
2024-01-24T22:14:01.297Z,7.69
2024-01-24T22:16:48.213Z,7.67
2024-01-24T22:19:36.124Z,7.65
2024-01-24T22:22:22.652Z,7.66
2024-01-24T22:25:11.333Z,7.59
2024-01-24T22:27:58.932Z,7.63
2024-01-24T22:30:50.074Z,7.58
2024-01-24T22:33:37.426Z,7.62
2024-01-24T22:36:29.018Z,7.58
2024-01-24T22:39:15.086Z,7.58
2024-01-24T22:42:01.329Z,7.56
2024-01-24T22:44:48.684Z,7.47
2024-01-24T22:47:34.923Z,7.45
2024-01-24T22:50:21.804Z,7.47
2024-01-24T22:53:07.878Z,7.37
2024-01-24T22:56:14.103Z,7.28
2024-01-24T22:59:00.233Z,7.31
2024-01-24T23:01:46.664Z,7.30
2024-01-24T23:04:32.986Z,7.27
2024-01-24T23:07:19.094Z,7.25
2024-01-24T23:10:05.928Z,7.18
2024-01-24T23:12:54.723Z,7.17
2024-01-24T23:15:40.686Z,7.12
2024-01-24T23:18:28.077Z,7.08
2024-01-24T23:21:15.514Z,7.12
2024-01-24T23:24:07.185Z,6.99
2024-01-24T23:26:53.307Z,7.04
2024-01-24T23:29:39.499Z,7.06
2024-01-24T23:32:26.875Z,7.08
2024-01-24T23:35:13.049Z,7.08
2024-01-24T23:37:59.148Z,7.09
2024-01-24T23:40:45.422Z,7.14
2024-01-24T23:43:31.569Z,7.13
2024-01-24T23:46:18.253Z,7.07
2024-01-24T23:49:04.867Z,7.14
2024-01-24T23:51:52.596Z,7.12
2024-01-24T23:54:39.076Z,7.09
2024-01-24T23:57:26.182Z,7.10
